sensor_id;sensor_type;location;lat;lon;timestamp;temperature;humidity
7143;DHT22;3613;48.902;9.204;2023-02-19T00:01:09;8.70;99.90
7143;DHT22;3613;48.902;9.204;2023-02-19T00:03:36;8.70;99.90
7143;DHT22;3613;48.902;9.204;2023-02-19T00:06:06;8.80;99.90
7143;DHT22;3613;48.902;9.204;2023-02-19T00:08:33;8.80;99.90
7143;DHT22;3613;48.902;9.204;2023-02-19T00:11:07;8.80;99.90
7143;DHT22;3613;48.902;9.204;2023-02-19T00:13:42;8.80;99.90
7143;DHT22;3613;48.902;9.204;2023-02-19T00:16:10;8.80;99.90
7143;DHT22;3613;48.902;9.204;2023-02-19T00:18:39;8.80;99.90
7143;DHT22;3613;48.902;9.204;2023-02-19T00:21:05;8.80;99.90
7143;DHT22;3613;48.902;9.204;2023-02-19T00:23:31;8.70;99.90
7143;DHT22;3613;48.902;9.204;2023-02-19T00:26:01;8.80;99.90
7143;DHT22;3613;48.902;9.204;2023-02-19T00:28:29;8.70;99.90
7143;DHT22;3613;48.902;9.204;2023-02-19T00:30:56;8.70;99.90
7143;DHT22;3613;48.902;9.204;2023-02-19T00:33:27;8.80;99.90
7143;DHT22;3613;48.902;9.204;2023-02-19T00:36:00;8.80;99.90
7143;DHT22;3613;48.902;9.204;2023-02-19T00:38:28;8.90;99.90
7143;DHT22;3613;48.902;9.204;2023-02-19T00:40:54;8.80;99.90
7143;DHT22;3613;48.902;9.204;2023-02-19T00:43:22;8.80;99.90
7143;DHT22;3613;48.902;9.204;2023-02-19T00:45:47;8.80;99.90
7143;DHT22;3613;48.902;9.204;2023-02-19T00:48:13;8.80;99.90
7143;DHT22;3613;48.902;9.204;2023-02-19T00:50:41;10.00;99.90
7143;DHT22;3613;48.902;9.204;2023-02-19T00:53:06;8.80;99.90
7143;DHT22;3613;48.902;9.204;2023-02-19T00:55:32;8.80;99.90
7143;DHT22;3613;48.902;9.204;2023-02-19T00:57:57;8.90;99.90
7143;DHT22;3613;48.902;9.204;2023-02-19T01:00:26;8.80;99.90
7143;DHT22;3613;48.902;9.204;2023-02-19T01:02:51;8.80;99.90
7143;DHT22;3613;48.902;9.204;2023-02-19T01:05:19;8.80;99.90
7143;DHT22;3613;48.902;9.204;2023-02-19T01:07:44;8.80;99.90
7143;DHT22;3613;48.902;9.204;2023-02-19T01:10:10;8.80;99.90
7143;DHT22;3613;48.902;9.204;2023-02-19T01:12:38;8.80;99.90
7143;DHT22;3613;48.902;9.204;2023-02-19T01:15:04;8.80;99.90
7143;DHT22;3613;48.902;9.204;2023-02-19T01:17:29;8.80;99.90
7143;DHT22;3613;48.902;9.204;2023-02-19T01:19:57;8.80;99.90
7143;DHT22;3613;48.902;9.204;2023-02-19T01:22:25;8.80;99.90
7143;DHT22;3613;48.902;9.204;2023-02-19T01:24:51;8.80;99.90
7143;DHT22;3613;48.902;9.204;2023-02-19T01:27:16;8.80;99.90
7143;DHT22;3613;48.902;9.204;2023-02-19T01:29:42;8.80;99.90
7143;DHT22;3613;48.902;9.204;2023-02-19T01:32:10;8.80;99.90
7143;DHT22;3613;48.902;9.204;2023-02-19T01:34:35;8.80;99.90
7143;DHT22;3613;48.902;9.204;2023-02-19T01:37:01;8.90;99.90
7143;DHT22;3613;48.902;9.204;2023-02-19T01:39:30;8.80;99.90
7143;DHT22;3613;48.902;9.204;2023-02-19T01:41:55;8.90;99.90
7143;DHT22;3613;48.902;9.204;2023-02-19T01:46:48;8.80;99.90
7143;DHT22;3613;48.902;9.204;2023-02-19T01:49:46;8.80;99.90
7143;DHT22;3613;48.902;9.204;2023-02-19T01:52:32;8.80;99.90
7143;DHT22;3613;48.902;9.204;2023-02-19T01:55:04;8.90;99.90
7143;DHT22;3613;48.902;9.204;2023-02-19T01:57:40;8.90;99.90
7143;DHT22;3613;48.902;9.204;2023-02-19T02:00:09;8.90;99.90
7143;DHT22;3613;48.902;9.204;2023-02-19T02:02:43;8.90;99.90
7143;DHT22;3613;48.902;9.204;2023-02-19T02:05:22;8.90;99.90
7143;DHT22;3613;48.902;9.204;2023-02-19T02:07:51;8.90;99.90
7143;DHT22;3613;48.902;9.204;2023-02-19T02:10:36;8.90;99.90
7143;DHT22;3613;48.902;9.204;2023-02-19T02:13:03;8.90;99.90
7143;DHT22;3613;48.902;9.204;2023-02-19T02:15:39;8.80;99.90
7143;DHT22;3613;48.902;9.204;2023-02-19T02:18:35;8.90;99.90
7143;DHT22;3613;48.902;9.204;2023-02-19T02:26:40;8.80;99.90
7143;DHT22;3613;48.902;9.204;2023-02-19T02:35:22;8.80;99.90
7143;DHT22;3613;48.902;9.204;2023-02-19T02:37:52;8.80;99.90
7143;DHT22;3613;48.902;9.204;2023-02-19T02:40:22;8.80;99.90
7143;DHT22;3613;48.902;9.204;2023-02-19T02:42:55;9.00;99.90
7143;DHT22;3613;48.902;9.204;2023-02-19T02:45:29;8.90;99.90
7143;DHT22;3613;48.902;9.204;2023-02-19T02:50:56;8.90;99.90
7143;DHT22;3613;48.902;9.204;2023-02-19T02:53:46;8.90;99.90
7143;DHT22;3613;48.902;9.204;2023-02-19T02:56:32;8.90;99.90
7143;DHT22;3613;48.902;9.204;2023-02-19T02:59:03;8.90;99.90
7143;DHT22;3613;48.902;9.204;2023-02-19T03:01:47;8.90;99.90
7143;DHT22;3613;48.902;9.204;2023-02-19T03:07:34;8.90;99.90
7143;DHT22;3613;48.902;9.204;2023-02-19T03:10:02;8.90;99.90
7143;DHT22;3613;48.902;9.204;2023-02-19T03:12:32;8.90;99.90
7143;DHT22;3613;48.902;9.204;2023-02-19T03:15:18;8.90;99.90
7143;DHT22;3613;48.902;9.204;2023-02-19T03:18:05;8.90;99.90
7143;DHT22;3613;48.902;9.204;2023-02-19T03:20:55;8.90;99.90
7143;DHT22;3613;48.902;9.204;2023-02-19T03:23:26;8.90;99.90
7143;DHT22;3613;48.902;9.204;2023-02-19T03:26:13;8.90;99.90
7143;DHT22;3613;48.902;9.204;2023-02-19T03:28:41;8.80;99.90
7143;DHT22;3613;48.902;9.204;2023-02-19T03:31:29;8.90;99.90
7143;DHT22;3613;48.902;9.204;2023-02-19T03:34:02;8.80;99.90
7143;DHT22;3613;48.902;9.204;2023-02-19T03:36:44;8.80;99.90
7143;DHT22;3613;48.902;9.204;2023-02-19T03:39:16;8.80;99.90
7143;DHT22;3613;48.902;9.204;2023-02-19T03:42:14;8.90;99.90
7143;DHT22;3613;48.902;9.204;2023-02-19T03:44:57;8.80;99.90
7143;DHT22;3613;48.902;9.204;2023-02-19T03:47:33;8.80;99.90
7143;DHT22;3613;48.902;9.204;2023-02-19T03:58:02;8.70;99.90
7143;DHT22;3613;48.902;9.204;2023-02-19T04:00:33;8.70;99.90
7143;DHT22;3613;48.902;9.204;2023-02-19T04:03:31;8.70;99.90
7143;DHT22;3613;48.902;9.204;2023-02-19T04:06:01;8.70;99.90
7143;DHT22;3613;48.902;9.204;2023-02-19T04:08:28;8.70;99.90
7143;DHT22;3613;48.902;9.204;2023-02-19T04:10:58;8.70;99.90
7143;DHT22;3613;48.902;9.204;2023-02-19T04:13:31;8.70;99.90
7143;DHT22;3613;48.902;9.204;2023-02-19T04:16:06;8.60;99.90
7143;DHT22;3613;48.902;9.204;2023-02-19T04:18:37;8.60;99.90
7143;DHT22;3613;48.902;9.204;2023-02-19T04:21:05;8.60;99.90
7143;DHT22;3613;48.902;9.204;2023-02-19T04:23:39;8.80;99.90
7143;DHT22;3613;48.902;9.204;2023-02-19T04:26:07;8.50;99.90
7143;DHT22;3613;48.902;9.204;2023-02-19T04:28:33;8.60;99.90
7143;DHT22;3613;48.902;9.204;2023-02-19T04:31:04;8.60;99.90
7143;DHT22;3613;48.902;9.204;2023-02-19T04:33:34;8.60;99.90
7143;DHT22;3613;48.902;9.204;2023-02-19T04:36:08;8.50;99.90
7143;DHT22;3613;48.902;9.204;2023-02-19T04:38:34;8.50;99.90
7143;DHT22;3613;48.902;9.204;2023-02-19T04:41:02;8.40;99.90
7143;DHT22;3613;48.902;9.204;2023-02-19T04:43:30;8.40;99.90
7143;DHT22;3613;48.902;9.204;2023-02-19T04:46:02;8.40;99.90
7143;DHT22;3613;48.902;9.204;2023-02-19T04:48:28;8.40;99.90
7143;DHT22;3613;48.902;9.204;2023-02-19T04:50:53;8.40;99.90
7143;DHT22;3613;48.902;9.204;2023-02-19T04:53:19;8.40;99.90
7143;DHT22;3613;48.902;9.204;2023-02-19T04:55:44;8.40;99.90
7143;DHT22;3613;48.902;9.204;2023-02-19T04:58:12;8.40;99.90
7143;DHT22;3613;48.902;9.204;2023-02-19T05:00:40;8.30;99.90
7143;DHT22;3613;48.902;9.204;2023-02-19T05:03:05;8.40;99.90
7143;DHT22;3613;48.902;9.204;2023-02-19T05:05:31;8.30;99.90
7143;DHT22;3613;48.902;9.204;2023-02-19T05:07:59;8.30;99.90
7143;DHT22;3613;48.902;9.204;2023-02-19T05:10:24;8.30;99.90
7143;DHT22;3613;48.902;9.204;2023-02-19T05:12:50;8.30;99.90
7143;DHT22;3613;48.902;9.204;2023-02-19T05:15:16;8.30;99.90
7143;DHT22;3613;48.902;9.204;2023-02-19T05:17:42;8.30;99.90
7143;DHT22;3613;48.902;9.204;2023-02-19T05:20:08;8.30;99.90
7143;DHT22;3613;48.902;9.204;2023-02-19T05:22:33;8.20;99.90
7143;DHT22;3613;48.902;9.204;2023-02-19T05:25:02;8.20;99.90
7143;DHT22;3613;48.902;9.204;2023-02-19T05:27:29;8.20;99.90
7143;DHT22;3613;48.902;9.204;2023-02-19T05:29:55;8.20;99.90
7143;DHT22;3613;48.902;9.204;2023-02-19T05:32:21;8.50;99.90
7143;DHT22;3613;48.902;9.204;2023-02-19T05:34:46;8.20;99.90
7143;DHT22;3613;48.902;9.204;2023-02-19T05:37:12;8.20;99.90
7143;DHT22;3613;48.902;9.204;2023-02-19T05:39:38;8.20;99.90
7143;DHT22;3613;48.902;9.204;2023-02-19T05:42:07;8.20;99.90
7143;DHT22;3613;48.902;9.204;2023-02-19T05:44:33;8.20;99.90
7143;DHT22;3613;48.902;9.204;2023-02-19T05:46:58;8.20;99.90
7143;DHT22;3613;48.902;9.204;2023-02-19T05:49:26;8.10;99.90
7143;DHT22;3613;48.902;9.204;2023-02-19T05:51:54;8.20;99.90
7143;DHT22;3613;48.902;9.204;2023-02-19T05:54:20;8.20;99.90
7143;DHT22;3613;48.902;9.204;2023-02-19T05:56:47;8.20;99.90
7143;DHT22;3613;48.902;9.204;2023-02-19T05:59:16;8.30;99.90
7143;DHT22;3613;48.902;9.204;2023-02-19T06:01:42;8.20;99.90
7143;DHT22;3613;48.902;9.204;2023-02-19T06:04:11;8.20;99.90
7143;DHT22;3613;48.902;9.204;2023-02-19T06:06:39;8.20;99.90
7143;DHT22;3613;48.902;9.204;2023-02-19T06:09:08;8.20;99.90
7143;DHT22;3613;48.902;9.204;2023-02-19T06:11:34;8.20;99.90
7143;DHT22;3613;48.902;9.204;2023-02-19T06:14:00;8.20;99.90
7143;DHT22;3613;48.902;9.204;2023-02-19T06:16:28;8.20;99.90
7143;DHT22;3613;48.902;9.204;2023-02-19T06:18:56;8.20;99.90
7143;DHT22;3613;48.902;9.204;2023-02-19T06:21:24;8.20;99.90
7143;DHT22;3613;48.902;9.204;2023-02-19T06:23:50;8.10;99.90
7143;DHT22;3613;48.902;9.204;2023-02-19T06:26:18;8.20;99.90
7143;DHT22;3613;48.902;9.204;2023-02-19T06:28:48;8.20;99.90
7143;DHT22;3613;48.902;9.204;2023-02-19T06:31:16;9.70;99.90
7143;DHT22;3613;48.902;9.204;2023-02-19T06:33:42;8.20;99.90
7143;DHT22;3613;48.902;9.204;2023-02-19T06:36:16;8.20;99.90
7143;DHT22;3613;48.902;9.204;2023-02-19T06:38:45;8.20;99.90
7143;DHT22;3613;48.902;9.204;2023-02-19T06:41:13;8.30;99.90
7143;DHT22;3613;48.902;9.204;2023-02-19T06:43:39;8.30;99.90
7143;DHT22;3613;48.902;9.204;2023-02-19T06:46:06;8.30;99.90
7143;DHT22;3613;48.902;9.204;2023-02-19T06:48:32;8.30;99.90
7143;DHT22;3613;48.902;9.204;2023-02-19T06:51:00;8.40;99.90
7143;DHT22;3613;48.902;9.204;2023-02-19T06:53:29;8.40;99.90
7143;DHT22;3613;48.902;9.204;2023-02-19T06:56:06;8.40;99.90
7143;DHT22;3613;48.902;9.204;2023-02-19T06:58:32;8.40;99.90
7143;DHT22;3613;48.902;9.204;2023-02-19T07:00:58;8.40;99.90
7143;DHT22;3613;48.902;9.204;2023-02-19T07:03:24;8.50;99.90
7143;DHT22;3613;48.902;9.204;2023-02-19T07:05:53;8.60;99.90
7143;DHT22;3613;48.902;9.204;2023-02-19T07:08:21;8.60;99.90
7143;DHT22;3613;48.902;9.204;2023-02-19T07:10:55;8.70;99.90
7143;DHT22;3613;48.902;9.204;2023-02-19T07:13:24;8.70;99.90
7143;DHT22;3613;48.902;9.204;2023-02-19T07:15:58;8.70;99.90
7143;DHT22;3613;48.902;9.204;2023-02-19T07:18:29;8.70;99.90
7143;DHT22;3613;48.902;9.204;2023-02-19T07:20:54;8.70;99.90
7143;DHT22;3613;48.902;9.204;2023-02-19T07:23:25;8.70;99.90
7143;DHT22;3613;48.902;9.204;2023-02-19T07:25:51;8.80;99.90
7143;DHT22;3613;48.902;9.204;2023-02-19T07:28:19;8.70;99.90
7143;DHT22;3613;48.902;9.204;2023-02-19T07:30:44;8.70;99.90
7143;DHT22;3613;48.902;9.204;2023-02-19T07:33:13;8.70;99.90
7143;DHT22;3613;48.902;9.204;2023-02-19T07:35:47;8.80;99.90
7143;DHT22;3613;48.902;9.204;2023-02-19T07:38:17;8.80;99.90
7143;DHT22;3613;48.902;9.204;2023-02-19T07:40:56;8.90;99.90
7143;DHT22;3613;48.902;9.204;2023-02-19T07:43:26;8.90;99.90
7143;DHT22;3613;48.902;9.204;2023-02-19T07:45:52;8.80;99.90
7143;DHT22;3613;48.902;9.204;2023-02-19T07:48:18;8.90;99.90
7143;DHT22;3613;48.902;9.204;2023-02-19T07:50:59;8.90;99.90
7143;DHT22;3613;48.902;9.204;2023-02-19T07:53:27;8.80;99.90
7143;DHT22;3613;48.902;9.204;2023-02-19T07:55:57;8.80;99.90
7143;DHT22;3613;48.902;9.204;2023-02-19T07:58:25;8.80;99.90
7143;DHT22;3613;48.902;9.204;2023-02-19T08:00:50;8.80;99.90
7143;DHT22;3613;48.902;9.204;2023-02-19T08:03:18;8.80;99.90
7143;DHT22;3613;48.902;9.204;2023-02-19T08:05:44;8.80;99.90
7143;DHT22;3613;48.902;9.204;2023-02-19T08:08:14;8.90;99.90
7143;DHT22;3613;48.902;9.204;2023-02-19T08:10:40;9.00;99.90
7143;DHT22;3613;48.902;9.204;2023-02-19T08:13:29;9.00;99.90
7143;DHT22;3613;48.902;9.204;2023-02-19T08:18:27;9.10;99.90
7143;DHT22;3613;48.902;9.204;2023-02-19T08:20:54;9.30;99.90
7143;DHT22;3613;48.902;9.204;2023-02-19T08:23:20;9.40;99.90
7143;DHT22;3613;48.902;9.204;2023-02-19T08:25:49;9.40;99.90
7143;DHT22;3613;48.902;9.204;2023-02-19T08:28:18;9.60;99.90
7143;DHT22;3613;48.902;9.204;2023-02-19T08:30:46;9.40;99.90
7143;DHT22;3613;48.902;9.204;2023-02-19T08:33:18;9.30;99.90
7143;DHT22;3613;48.902;9.204;2023-02-19T08:35:45;9.20;99.90
7143;DHT22;3613;48.902;9.204;2023-02-19T08:38:11;9.20;99.90
7143;DHT22;3613;48.902;9.204;2023-02-19T08:40:38;9.30;99.90
7143;DHT22;3613;48.902;9.204;2023-02-19T08:43:15;9.30;99.90
7143;DHT22;3613;48.902;9.204;2023-02-19T08:45:43;9.40;99.90
7143;DHT22;3613;48.902;9.204;2023-02-19T08:48:10;9.50;99.90
7143;DHT22;3613;48.902;9.204;2023-02-19T08:50:36;9.60;99.90
7143;DHT22;3613;48.902;9.204;2023-02-19T08:53:03;9.70;99.90
7143;DHT22;3613;48.902;9.204;2023-02-19T08:55:29;9.70;99.90
7143;DHT22;3613;48.902;9.204;2023-02-19T08:57:57;9.80;99.90
7143;DHT22;3613;48.902;9.204;2023-02-19T09:00:27;9.90;99.90
7143;DHT22;3613;48.902;9.204;2023-02-19T09:02:56;9.90;99.90
7143;DHT22;3613;48.902;9.204;2023-02-19T09:05:22;10.10;99.90
7143;DHT22;3613;48.902;9.204;2023-02-19T09:07:48;10.20;99.90
7143;DHT22;3613;48.902;9.204;2023-02-19T09:10:16;10.30;99.90
7143;DHT22;3613;48.902;9.204;2023-02-19T09:12:43;10.40;99.90
7143;DHT22;3613;48.902;9.204;2023-02-19T09:15:11;10.60;99.90
7143;DHT22;3613;48.902;9.204;2023-02-19T09:17:37;10.70;99.90
7143;DHT22;3613;48.902;9.204;2023-02-19T09:20:08;10.80;99.90
7143;DHT22;3613;48.902;9.204;2023-02-19T09:22:33;11.00;99.90
7143;DHT22;3613;48.902;9.204;2023-02-19T09:25:01;11.00;99.90
7143;DHT22;3613;48.902;9.204;2023-02-19T09:27:32;11.00;99.90
7143;DHT22;3613;48.902;9.204;2023-02-19T09:29:58;11.10;99.90
7143;DHT22;3613;48.902;9.204;2023-02-19T09:32:23;11.10;99.90
7143;DHT22;3613;48.902;9.204;2023-02-19T09:34:49;10.90;99.90
7143;DHT22;3613;48.902;9.204;2023-02-19T09:37:17;10.80;99.90
7143;DHT22;3613;48.902;9.204;2023-02-19T09:39:43;10.60;99.90
7143;DHT22;3613;48.902;9.204;2023-02-19T09:42:19;10.50;99.90
7143;DHT22;3613;48.902;9.204;2023-02-19T09:44:50;10.50;99.90
7143;DHT22;3613;48.902;9.204;2023-02-19T09:47:19;10.60;99.90
7143;DHT22;3613;48.902;9.204;2023-02-19T09:49:49;10.70;99.90
7143;DHT22;3613;48.902;9.204;2023-02-19T09:52:27;10.90;99.90
7143;DHT22;3613;48.902;9.204;2023-02-19T09:55:01;11.30;99.90
7143;DHT22;3613;48.902;9.204;2023-02-19T09:57:32;11.40;99.90
7143;DHT22;3613;48.902;9.204;2023-02-19T10:00:04;11.90;99.90
7143;DHT22;3613;48.902;9.204;2023-02-19T10:02:36;12.10;99.90
7143;DHT22;3613;48.902;9.204;2023-02-19T10:05:14;12.40;99.90
7143;DHT22;3613;48.902;9.204;2023-02-19T10:07:45;12.30;99.90
7143;DHT22;3613;48.902;9.204;2023-02-19T10:12:48;12.10;99.90
7143;DHT22;3613;48.902;9.204;2023-02-19T10:17:56;12.20;99.90
7143;DHT22;3613;48.902;9.204;2023-02-19T10:20:23;12.20;99.90
7143;DHT22;3613;48.902;9.204;2023-02-19T10:23:06;12.40;99.90
7143;DHT22;3613;48.902;9.204;2023-02-19T10:25:36;12.30;99.90
7143;DHT22;3613;48.902;9.204;2023-02-19T10:28:08;12.40;99.90
7143;DHT22;3613;48.902;9.204;2023-02-19T10:30:37;12.30;99.90
7143;DHT22;3613;48.902;9.204;2023-02-19T10:38:19;12.20;99.90
7143;DHT22;3613;48.902;9.204;2023-02-19T10:40:46;12.10;99.90
7143;DHT22;3613;48.902;9.204;2023-02-19T10:43:21;12.00;99.90
7143;DHT22;3613;48.902;9.204;2023-02-19T10:45:57;12.00;99.90
7143;DHT22;3613;48.902;9.204;2023-02-19T10:48:45;12.10;99.90
7143;DHT22;3613;48.902;9.204;2023-02-19T10:51:12;12.20;99.90
7143;DHT22;3613;48.902;9.204;2023-02-19T10:53:49;12.30;99.90
7143;DHT22;3613;48.902;9.204;2023-02-19T10:58:47;12.40;99.90
7143;DHT22;3613;48.902;9.204;2023-02-19T11:01:20;12.40;99.90
7143;DHT22;3613;48.902;9.204;2023-02-19T11:03:50;12.30;99.90
7143;DHT22;3613;48.902;9.204;2023-02-19T11:06:18;12.40;99.90
7143;DHT22;3613;48.902;9.204;2023-02-19T11:08:49;12.40;99.90
7143;DHT22;3613;48.902;9.204;2023-02-19T11:11:41;12.20;99.90
7143;DHT22;3613;48.902;9.204;2023-02-19T11:14:16;11.90;99.90
7143;DHT22;3613;48.902;9.204;2023-02-19T11:16:45;11.80;99.90
7143;DHT22;3613;48.902;9.204;2023-02-19T11:21:53;11.20;99.90
7143;DHT22;3613;48.902;9.204;2023-02-19T11:24:31;11.00;99.90
7143;DHT22;3613;48.902;9.204;2023-02-19T11:27:00;10.90;99.90
7143;DHT22;3613;48.902;9.204;2023-02-19T11:29:28;11.10;99.90
7143;DHT22;3613;48.902;9.204;2023-02-19T11:34:47;11.60;99.90
7143;DHT22;3613;48.902;9.204;2023-02-19T11:37:20;11.80;99.90
7143;DHT22;3613;48.902;9.204;2023-02-19T11:39:49;12.10;99.90
7143;DHT22;3613;48.902;9.204;2023-02-19T11:42:48;12.40;99.90
7143;DHT22;3613;48.902;9.204;2023-02-19T11:48:35;12.50;99.90
7143;DHT22;3613;48.902;9.204;2023-02-19T11:53:34;12.30;99.90
7143;DHT22;3613;48.902;9.204;2023-02-19T11:56:23;12.30;99.90
7143;DHT22;3613;48.902;9.204;2023-02-19T11:58:59;12.30;99.90
7143;DHT22;3613;48.902;9.204;2023-02-19T12:09:30;12.10;99.90
7143;DHT22;3613;48.902;9.204;2023-02-19T12:29:02;11.80;99.90
7143;DHT22;3613;48.902;9.204;2023-02-19T12:45:26;12.50;99.90
7143;DHT22;3613;48.902;9.204;2023-02-19T12:48:15;12.70;99.90
7143;DHT22;3613;48.902;9.204;2023-02-19T12:50:49;12.60;99.90
7143;DHT22;3613;48.902;9.204;2023-02-19T12:53:29;12.60;99.90
7143;DHT22;3613;48.902;9.204;2023-02-19T12:55:56;12.70;99.90
7143;DHT22;3613;48.902;9.204;2023-02-19T13:00:59;12.50;99.90
7143;DHT22;3613;48.902;9.204;2023-02-19T13:03:30;12.40;99.90
7143;DHT22;3613;48.902;9.204;2023-02-19T13:06:38;12.20;99.90
7143;DHT22;3613;48.902;9.204;2023-02-19T13:14:50;11.10;99.90
7143;DHT22;3613;48.902;9.204;2023-02-19T13:23:00;10.60;99.90
7143;DHT22;3613;48.902;9.204;2023-02-19T13:36:37;11.10;99.90
7143;DHT22;3613;48.902;9.204;2023-02-19T13:39:04;11.50;99.90
7143;DHT22;3613;48.902;9.204;2023-02-19T13:44:21;11.10;99.90
7143;DHT22;3613;48.902;9.204;2023-02-19T13:46:49;10.70;99.90
7143;DHT22;3613;48.902;9.204;2023-02-19T13:52:00;9.90;99.90
7143;DHT22;3613;48.902;9.204;2023-02-19T13:59:51;9.90;99.90
7143;DHT22;3613;48.902;9.204;2023-02-19T14:04:52;10.50;99.90
7143;DHT22;3613;48.902;9.204;2023-02-19T14:07:19;10.70;99.90
7143;DHT22;3613;48.902;9.204;2023-02-19T14:09:46;11.00;99.90
7143;DHT22;3613;48.902;9.204;2023-02-19T14:14:40;11.20;99.90
7143;DHT22;3613;48.902;9.204;2023-02-19T14:17:26;11.10;99.90
7143;DHT22;3613;48.902;9.204;2023-02-19T14:22:45;11.00;99.90
7143;DHT22;3613;48.902;9.204;2023-02-19T14:28:34;11.20;99.90
7143;DHT22;3613;48.902;9.204;2023-02-19T14:33:42;11.50;99.90
7143;DHT22;3613;48.902;9.204;2023-02-19T14:36:26;11.50;99.90
7143;DHT22;3613;48.902;9.204;2023-02-19T14:41:56;11.60;99.90
7143;DHT22;3613;48.902;9.204;2023-02-19T14:44:24;11.50;99.90
7143;DHT22;3613;48.902;9.204;2023-02-19T14:52:02;11.30;99.90
7143;DHT22;3613;48.902;9.204;2023-02-19T14:54:59;11.20;99.90
7143;DHT22;3613;48.902;9.204;2023-02-19T14:57:28;11.20;99.90
7143;DHT22;3613;48.902;9.204;2023-02-19T14:59:59;11.10;99.90
7143;DHT22;3613;48.902;9.204;2023-02-19T15:02:27;11.10;99.90
7143;DHT22;3613;48.902;9.204;2023-02-19T15:04:54;11.10;99.90
7143;DHT22;3613;48.902;9.204;2023-02-19T15:07:26;11.00;99.90
7143;DHT22;3613;48.902;9.204;2023-02-19T15:09:56;10.90;99.90
7143;DHT22;3613;48.902;9.204;2023-02-19T15:12:32;10.90;99.90
7143;DHT22;3613;48.902;9.204;2023-02-19T15:15:04;10.90;99.90
7143;DHT22;3613;48.902;9.204;2023-02-19T15:17:31;10.90;99.90
7143;DHT22;3613;48.902;9.204;2023-02-19T15:20:03;10.80;99.90
7143;DHT22;3613;48.902;9.204;2023-02-19T15:22:30;10.80;99.90
7143;DHT22;3613;48.902;9.204;2023-02-19T15:25:00;10.70;99.90
7143;DHT22;3613;48.902;9.204;2023-02-19T15:27:26;10.60;99.90
7143;DHT22;3613;48.902;9.204;2023-02-19T15:29:54;10.60;99.90
7143;DHT22;3613;48.902;9.204;2023-02-19T15:32:25;10.60;99.90
7143;DHT22;3613;48.902;9.204;2023-02-19T15:35:02;10.50;99.90
7143;DHT22;3613;48.902;9.204;2023-02-19T15:37:31;10.50;99.90
7143;DHT22;3613;48.902;9.204;2023-02-19T15:40:02;10.60;99.90
7143;DHT22;3613;48.902;9.204;2023-02-19T15:42:31;10.50;99.90
7143;DHT22;3613;48.902;9.204;2023-02-19T15:45:19;10.60;99.90
7143;DHT22;3613;48.902;9.204;2023-02-19T15:47:50;10.60;99.90
7143;DHT22;3613;48.902;9.204;2023-02-19T15:50:33;10.60;99.90
7143;DHT22;3613;48.902;9.204;2023-02-19T15:53:24;10.60;99.90
7143;DHT22;3613;48.902;9.204;2023-02-19T15:56:08;10.60;99.90
7143;DHT22;3613;48.902;9.204;2023-02-19T15:58:56;10.60;99.90
7143;DHT22;3613;48.902;9.204;2023-02-19T16:01:27;10.60;99.90
7143;DHT22;3613;48.902;9.204;2023-02-19T16:03:53;10.70;99.90
7143;DHT22;3613;48.902;9.204;2023-02-19T16:06:21;10.50;99.90
7143;DHT22;3613;48.902;9.204;2023-02-19T16:11:29;10.50;99.90
7143;DHT22;3613;48.902;9.204;2023-02-19T16:14:27;10.40;99.90
7143;DHT22;3613;48.902;9.204;2023-02-19T16:20:05;10.30;99.90
7143;DHT22;3613;48.902;9.204;2023-02-19T16:22:39;10.30;99.90
7143;DHT22;3613;48.902;9.204;2023-02-19T16:25:06;10.20;99.90
7143;DHT22;3613;48.902;9.204;2023-02-19T16:27:35;10.20;99.90
7143;DHT22;3613;48.902;9.204;2023-02-19T16:30:26;10.10;99.90
7143;DHT22;3613;48.902;9.204;2023-02-19T16:35:57;10.00;99.90
7143;DHT22;3613;48.902;9.204;2023-02-19T16:38:25;9.90;99.90
7143;DHT22;3613;48.902;9.204;2023-02-19T16:43:22;9.80;99.90
7143;DHT22;3613;48.902;9.204;2023-02-19T16:45:49;9.80;99.90
7143;DHT22;3613;48.902;9.204;2023-02-19T16:48:14;9.80;99.90
7143;DHT22;3613;48.902;9.204;2023-02-19T16:50:40;9.70;99.90
7143;DHT22;3613;48.902;9.204;2023-02-19T16:53:18;9.70;99.90
7143;DHT22;3613;48.902;9.204;2023-02-19T16:55:45;9.70;99.90
7143;DHT22;3613;48.902;9.204;2023-02-19T16:58:13;9.80;99.90
7143;DHT22;3613;48.902;9.204;2023-02-19T17:00:38;9.60;99.90
7143;DHT22;3613;48.902;9.204;2023-02-19T17:03:10;9.60;99.90
7143;DHT22;3613;48.902;9.204;2023-02-19T17:05:37;9.60;99.90
7143;DHT22;3613;48.902;9.204;2023-02-19T17:10:49;9.60;99.90
7143;DHT22;3613;48.902;9.204;2023-02-19T17:13:17;9.80;99.90
7143;DHT22;3613;48.902;9.204;2023-02-19T17:15:43;9.50;99.90
7143;DHT22;3613;48.902;9.204;2023-02-19T17:18:11;9.50;99.90
7143;DHT22;3613;48.902;9.204;2023-02-19T17:20:37;9.60;99.90
7143;DHT22;3613;48.902;9.204;2023-02-19T17:23:09;9.50;99.90
7143;DHT22;3613;48.902;9.204;2023-02-19T17:25:34;9.50;99.90
7143;DHT22;3613;48.902;9.204;2023-02-19T17:28:00;9.50;99.90
7143;DHT22;3613;48.902;9.204;2023-02-19T17:30:30;9.50;99.90
7143;DHT22;3613;48.902;9.204;2023-02-19T17:32:55;9.40;99.90
7143;DHT22;3613;48.902;9.204;2023-02-19T17:35:21;9.50;99.90
7143;DHT22;3613;48.902;9.204;2023-02-19T17:37:47;9.50;99.90
7143;DHT22;3613;48.902;9.204;2023-02-19T17:40:27;9.40;99.90
7143;DHT22;3613;48.902;9.204;2023-02-19T17:42:54;9.40;99.90
7143;DHT22;3613;48.902;9.204;2023-02-19T17:45:19;9.40;99.90
7143;DHT22;3613;48.902;9.204;2023-02-19T17:47:48;9.40;99.90
7143;DHT22;3613;48.902;9.204;2023-02-19T17:50:19;9.40;99.90
7143;DHT22;3613;48.902;9.204;2023-02-19T17:52:47;9.40;99.90
7143;DHT22;3613;48.902;9.204;2023-02-19T17:55:14;9.80;99.90
7143;DHT22;3613;48.902;9.204;2023-02-19T17:57:46;9.40;99.90
7143;DHT22;3613;48.902;9.204;2023-02-19T18:00:19;9.40;99.90
7143;DHT22;3613;48.902;9.204;2023-02-19T18:02:44;9.40;99.90
7143;DHT22;3613;48.902;9.204;2023-02-19T18:05:10;9.40;99.90
7143;DHT22;3613;48.902;9.204;2023-02-19T18:07:36;9.50;99.90
7143;DHT22;3613;48.902;9.204;2023-02-19T18:10:05;9.40;99.90
7143;DHT22;3613;48.902;9.204;2023-02-19T18:12:36;9.30;99.90
7143;DHT22;3613;48.902;9.204;2023-02-19T18:15:05;9.40;99.90
7143;DHT22;3613;48.902;9.204;2023-02-19T18:17:32;9.30;99.90
7143;DHT22;3613;48.902;9.204;2023-02-19T18:19:57;9.40;99.90
7143;DHT22;3613;48.902;9.204;2023-02-19T18:22:25;9.30;99.90
7143;DHT22;3613;48.902;9.204;2023-02-19T18:24:53;9.40;99.90
7143;DHT22;3613;48.902;9.204;2023-02-19T18:27:19;9.40;99.90
7143;DHT22;3613;48.902;9.204;2023-02-19T18:29:53;9.30;99.90
7143;DHT22;3613;48.902;9.204;2023-02-19T18:32:19;9.30;99.90
7143;DHT22;3613;48.902;9.204;2023-02-19T18:34:55;9.30;99.90
7143;DHT22;3613;48.902;9.204;2023-02-19T18:37:24;9.30;99.90
7143;DHT22;3613;48.902;9.204;2023-02-19T18:39:51;9.30;99.90
7143;DHT22;3613;48.902;9.204;2023-02-19T18:42:17;9.30;99.90
7143;DHT22;3613;48.902;9.204;2023-02-19T18:44:49;9.30;99.90
7143;DHT22;3613;48.902;9.204;2023-02-19T18:47:15;9.30;99.90
7143;DHT22;3613;48.902;9.204;2023-02-19T18:49:46;9.30;99.90
7143;DHT22;3613;48.902;9.204;2023-02-19T18:52:12;9.20;99.90
7143;DHT22;3613;48.902;9.204;2023-02-19T18:54:38;9.10;99.90
7143;DHT22;3613;48.902;9.204;2023-02-19T18:57:06;9.20;99.90
7143;DHT22;3613;48.902;9.204;2023-02-19T18:59:33;9.30;99.90
7143;DHT22;3613;48.902;9.204;2023-02-19T19:01:58;9.20;99.90
7143;DHT22;3613;48.902;9.204;2023-02-19T19:04:29;9.20;99.90
7143;DHT22;3613;48.902;9.204;2023-02-19T19:06:54;9.20;99.90
7143;DHT22;3613;48.902;9.204;2023-02-19T19:09:20;9.20;99.90
7143;DHT22;3613;48.902;9.204;2023-02-19T19:11:48;9.20;99.90
7143;DHT22;3613;48.902;9.204;2023-02-19T19:14:13;9.10;99.90
7143;DHT22;3613;48.902;9.204;2023-02-19T19:16:43;9.10;99.90
7143;DHT22;3613;48.902;9.204;2023-02-19T19:19:10;9.10;99.90